Terminal Aerodrome Forecast
Issued by NWS

Home | Current Version | Previous Version | Text Only | Print | Product List | Glossary On
Versions: 1 2 3 4 5 6 7 8 9 10 11 12 13 14 15 16 17 18 19 20 21 22
000
FTUS45 KLKN 242320
TAFWMC
TAF
KWMC 242320Z 2500/2524 25012G22KT P6SM -SHRA SCT040 BKN060
     FM250800 26009KT P6SM BKN040
     FM252000 27006KT P6SM SCT200=

USA.gov is the U.S. government's official web portal to all federal, state and local government web resources and services.